Terminal Aerodrome Forecast
Issued by NWS

Home | Current Version | Previous Version | Text Only | Print | Product List | Glossary On
Versions: 1 2 3 4 5 6 7 8 9 10 11 12 13 14
098
FTUS43 KAPX 281136
TAFTVC
TAF
KTVC 281136Z 2812/2912 04005KT P6SM -SHRA OVC100
     FM281600 02007KT P6SM BKN110
     FM290300 VRB03KT P6SM BKN100
     FM290900 VRB03KT P6SM SCT110=

USA.gov is the U.S. government's official web portal to all federal, state and local government web resources and services.